Pontiac, Missouri
Current Conditions -  °F | °C
As of 10:53 PM on Wednesday 22 Oct 2014 (Local Time) from KBPK Reporting Station
Clear Clear  
Wind Chill: 52°   Ceiling: Unl
Heat Index: 52°   Visibility: 10mi
Dew Point: 43°   Wind: 5mph
Humidity: 71%   Direction: 140°SE
Pressure: 30.2"   Gusts: NA
Location:  36.52°N, 92.6°W
Report Text: KBPK 230353Z AUTO 14004KT 10SM CLR 11/06 A3020 RMK AO2 SLP224 T01110061
Loading
Personal Weather Stations






























Interactive Weather Map
Tropical Storm Tracking
New forecast layout! Learn more

10-Day Weather Forecast

Advertisements
Track Severe Weather on mobile